Time;durP1;ratioP1;P1;durP2;ratioP2;P2;SDS_P1;SDS_P2;PMS_P1;PMS_P2;Temp;Humidity;BMP_temperature;BMP_pressure;BME280_temperature;BME280_humidity;BME280_pressure;Samples;Min_cycle;Max_cycle;Signal;HPM_P1;HPM_P2
2022/05/09 00:01:24;;;;;;;20.73;5.30;;;;;;;;;;5041769;28;20057;-83
2022/05/09 00:03:52;;;;;;;20.48;5.65;;;;;;;;;;5043174;28;20128;-84
2022/05/09 00:06:18;;;;;;;23.00;5.90;;;;;;;;;;5043727;28;20488;-84
2022/05/09 00:08:45;;;;;;;18.48;5.97;;;;;;;;;;5043059;28;20056;-84
2022/05/09 00:11:12;;;;;;;18.85;5.32;;;;;;;;;;5043900;28;20046;-84
2022/05/09 00:13:39;;;;;;;26.23;6.78;;;;;;;;;;5041718;28;20106;-84
2022/05/09 00:16:05;;;;;;;22.90;6.15;;;;;;;;;;5041908;28;20380;-84
2022/05/09 00:18:31;;;;;;;18.33;5.80;;;;;;;;;;5025864;28;20050;-84
2022/05/09 00:20:57;;;;;;;18.92;5.88;;;;;;;;;;5036883;28;20136;-83
2022/05/09 00:23:23;;;;;;;20.17;5.32;;;;;;;;;;5039864;28;20046;-83
2022/05/09 00:25:49;;;;;;;22.48;5.90;;;;;;;;;;5039863;28;20048;-83
2022/05/09 00:28:15;;;;;;;17.13;5.95;;;;;;;;;;5042137;28;20073;-84
2022/05/09 00:30:41;;;;;;;24.23;6.45;;;;;;;;;;5041969;28;20484;-83
2022/05/09 00:33:07;;;;;;;20.30;6.53;;;;;;;;;;5042659;28;20041;-84
2022/05/09 00:35:35;;;;;;;21.77;6.40;;;;;;;;;;5043961;28;20092;-83
2022/05/09 00:38:01;;;;;;;20.50;6.30;;;;;;;;;;5040183;28;20053;-83
2022/05/09 00:40:27;;;;;;;21.42;6.28;;;;;;;;;;5043156;28;20049;-83
2022/05/09 00:42:54;;;;;;;25.63;6.13;;;;;;;;;;5041620;28;20045;-84
2022/05/09 00:45:22;;;;;;;18.95;6.47;;;;;;;;;;5042222;28;20080;-83
2022/05/09 00:47:48;;;;;;;23.30;6.13;;;;;;;;;;5040107;28;20466;-83
2022/05/09 00:50:17;;;;;;;19.30;5.78;;;;;;;;;;5039713;28;20107;-83
2022/05/09 00:52:45;;;;;;;24.52;6.20;;;;;;;;;;5032564;28;20107;-83
2022/05/09 00:55:11;;;;;;;23.35;6.43;;;;;;;;;;5039546;28;20053;-84
2022/05/09 00:57:48;;;;;;;23.88;6.90;;;;;;;;;;5042713;28;20049;-83
2022/05/09 01:00:16;;;;;;;19.05;6.55;;;;;;;;;;5045323;28;20076;-84
2022/05/09 01:02:46;;;;;;;17.70;6.13;;;;;;;;;;5043989;28;20056;-83
2022/05/09 01:05:13;;;;;;;21.33;6.40;;;;;;;;;;5047111;28;20041;-83
2022/05/09 01:07:39;;;;;;;21.23;6.28;;;;;;;;;;5034746;28;20053;-83
2022/05/09 01:10:06;;;;;;;19.85;7.07;;;;;;;;;;5044740;28;20217;-83
2022/05/09 01:12:35;;;;;;;21.88;6.82;;;;;;;;;;5045704;28;20045;-83
2022/05/09 01:15:03;;;;;;;19.60;6.38;;;;;;;;;;5044019;28;20443;-84
2022/05/09 01:17:29;;;;;;;21.80;6.85;;;;;;;;;;5014887;28;20053;-83
2022/05/09 01:19:56;;;;;;;20.77;6.50;;;;;;;;;;5045634;28;20487;-83
2022/05/09 01:22:34;;;;;;;20.63;7.13;;;;;;;;;;5025509;28;20081;-82
2022/05/09 01:25:03;;;;;;;22.83;6.57;;;;;;;;;;5040088;28;20053;-84
2022/05/09 01:27:33;;;;;;;19.80;6.93;;;;;;;;;;5045481;28;20037;-84
2022/05/09 01:30:08;;;;;;;24.52;6.85;;;;;;;;;;5044233;28;20053;-84
2022/05/09 01:32:49;;;;;;;21.25;6.80;;;;;;;;;;5043031;28;20041;-84
2022/05/09 01:35:18;;;;;;;20.30;6.30;;;;;;;;;;5045619;28;20116;-84
2022/05/09 01:37:46;;;;;;;24.15;6.32;;;;;;;;;;5045018;28;20137;-83
2022/05/09 01:40:12;;;;;;;23.38;6.57;;;;;;;;;;5039981;28;20068;-84
2022/05/09 01:42:40;;;;;;;22.13;6.85;;;;;;;;;;5045714;28;20045;-83
2022/05/09 01:45:07;;;;;;;21.77;7.25;;;;;;;;;;5035991;28;20069;-83
2022/05/09 01:50:18;;;;;;;20.83;6.90;;;;;;;;;;5045787;28;20060;-83
2022/05/09 01:52:44;;;;;;;23.02;7.40;;;;;;;;;;5045093;28;20072;-83
2022/05/09 01:55:10;;;;;;;22.63;7.18;;;;;;;;;;5044695;28;20068;-84
2022/05/09 01:57:36;;;;;;;21.50;6.75;;;;;;;;;;5043631;28;20136;-83
2022/05/09 02:00:07;;;;;;;17.83;6.93;;;;;;;;;;5045402;28;20116;-83
2022/05/09 02:02:32;;;;;;;21.42;6.85;;;;;;;;;;5054188;28;20041;-83
2022/05/09 02:04:59;;;;;;;19.42;6.47;;;;;;;;;;5026930;28;20049;-84
2022/05/09 02:07:26;;;;;;;20.90;6.57;;;;;;;;;;5039215;28;20368;-83
2022/05/09 02:09:52;;;;;;;18.85;6.45;;;;;;;;;;5042815;28;20626;-83
2022/05/09 02:12:19;;;;;;;17.15;6.82;;;;;;;;;;5042537;28;20045;-84
2022/05/09 02:14:46;;;;;;;19.35;6.78;;;;;;;;;;5023143;28;20053;-84
2022/05/09 02:17:12;;;;;;;24.38;6.68;;;;;;;;;;5031691;28;20148;-84
2022/05/09 02:19:39;;;;;;;23.05;7.38;;;;;;;;;;5045466;28;20048;-83
2022/05/09 02:22:05;;;;;;;22.48;7.82;;;;;;;;;;5045576;28;20097;-84
2022/05/09 02:24:31;;;;;;;25.77;7.80;;;;;;;;;;5027210;28;20103;-83
2022/05/09 02:26:58;;;;;;;18.15;7.50;;;;;;;;;;5035333;28;20061;-83
2022/05/09 02:29:25;;;;;;;19.63;7.38;;;;;;;;;;5040202;28;20042;-83
2022/05/09 02:31:51;;;;;;;21.50;7.95;;;;;;;;;;5040105;28;20049;-83
2022/05/09 02:34:17;;;;;;;20.77;8.40;;;;;;;;;;5046130;28;20045;-82
2022/05/09 02:36:43;;;;;;;17.17;7.65;;;;;;;;;;5026447;28;20045;-83
2022/05/09 02:39:09;;;;;;;21.27;7.70;;;;;;;;;;5045240;28;20045;-83
2022/05/09 02:41:35;;;;;;;22.35;8.20;;;;;;;;;;5045828;28;20094;-84
2022/05/09 02:44:01;;;;;;;20.67;7.68;;;;;;;;;;5033843;28;20046;-84
2022/05/09 02:46:28;;;;;;;19.70;7.38;;;;;;;;;;5027871;28;20046;-83
2022/05/09 02:48:59;;;;;;;17.73;7.28;;;;;;;;;;5037463;28;20042;-84
2022/05/09 02:51:28;;;;;;;14.77;7.53;;;;;;;;;;5036478;28;20042;-83
2022/05/09 02:53:57;;;;;;;20.95;7.30;;;;;;;;;;5041163;28;20091;-84
2022/05/09 02:56:24;;;;;;;23.55;7.43;;;;;;;;;;5033927;28;20109;-84
2022/05/09 02:58:50;;;;;;;21.67;8.13;;;;;;;;;;5044267;28;20075;-83
2022/05/09 03:01:16;;;;;;;17.55;7.18;;;;;;;;;;5038340;28;20077;-83
2022/05/09 03:06:26;;;;;;;19.85;8.48;;;;;;;;;;5036281;28;20577;-83
2022/05/09 03:08:52;;;;;;;19.70;7.68;;;;;;;;;;5028057;28;20109;-84
2022/05/09 03:11:18;;;;;;;14.35;7.13;;;;;;;;;;5045749;28;20049;-84
2022/05/09 03:13:44;;;;;;;19.67;7.57;;;;;;;;;;5044960;28;20112;-84
2022/05/09 03:16:11;;;;;;;20.98;8.80;;;;;;;;;;5031190;28;20126;-84
2022/05/09 03:18:37;;;;;;;21.77;9.13;;;;;;;;;;5043433;28;20056;-84
2022/05/09 03:21:04;;;;;;;21.45;8.38;;;;;;;;;;5027548;28;20148;-83
2022/05/09 03:23:30;;;;;;;23.77;8.55;;;;;;;;;;5029591;28;20072;-84
2022/05/09 03:25:56;;;;;;;21.63;8.07;;;;;;;;;;5047726;28;20041;-83
2022/05/09 03:28:27;;;;;;;21.45;8.73;;;;;;;;;;5044646;28;20124;-84
2022/05/09 03:30:54;;;;;;;18.08;7.93;;;;;;;;;;5046807;28;20061;-84
2022/05/09 03:33:20;;;;;;;21.67;8.27;;;;;;;;;;5045834;28;20550;-84
2022/05/09 03:35:47;;;;;;;17.90;8.85;;;;;;;;;;5043077;28;20046;-84
2022/05/09 03:38:13;;;;;;;20.58;8.02;;;;;;;;;;5039832;28;20041;-84
2022/05/09 03:40:40;;;;;;;22.70;8.85;;;;;;;;;;5041786;28;20069;-84
2022/05/09 03:43:06;;;;;;;17.55;8.32;;;;;;;;;;5042785;28;20048;-84
2022/05/09 03:45:33;;;;;;;19.40;8.63;;;;;;;;;;5043289;28;20040;-82
2022/05/09 03:47:59;;;;;;;16.63;8.50;;;;;;;;;;5043473;28;20068;-84
2022/05/09 03:50:25;;;;;;;25.45;9.15;;;;;;;;;;5043902;28;20105;-84
2022/05/09 03:52:51;;;;;;;21.23;9.10;;;;;;;;;;5042112;28;20049;-84
2022/05/09 03:55:17;;;;;;;17.67;8.90;;;;;;;;;;5026912;28;20053;-84
2022/05/09 03:57:50;;;;;;;20.15;9.23;;;;;;;;;;5045019;28;20136;-84
2022/05/09 04:00:18;;;;;;;22.27;8.65;;;;;;;;;;5046295;28;20041;-85
2022/05/09 04:02:44;;;;;;;26.02;9.55;;;;;;;;;;5028152;28;20041;-84
2022/05/09 04:05:15;;;;;;;23.10;9.63;;;;;;;;;;5038649;28;20053;-84
2022/05/09 04:07:41;;;;;;;;;;;;;;;;;;5028151;28;20069;-84
2022/05/09 04:10:09;;;;;;;25.83;9.52;;;;;;;;;;5041797;28;20375;-83
2022/05/09 04:12:35;;;;;;;26.10;10.00;;;;;;;;;;5043752;28;20080;-84
2022/05/09 04:17:45;;;;;;;21.77;9.85;;;;;;;;;;5044459;28;20051;-84
2022/05/09 04:20:11;;;;;;;30.88;11.15;;;;;;;;;;5042451;28;20074;-84
2022/05/09 04:22:40;;;;;;;26.92;10.60;;;;;;;;;;5038726;28;20120;-84
2022/05/09 04:25:06;;;;;;;21.85;10.25;;;;;;;;;;5043512;28;20121;-84
2022/05/09 04:27:33;;;;;;;23.08;9.85;;;;;;;;;;5041799;28;20038;-84
2022/05/09 04:29:59;;;;;;;28.50;10.73;;;;;;;;;;5026876;28;20116;-84
2022/05/09 04:32:26;;;;;;;28.00;10.20;;;;;;;;;;5044480;28;20468;-84
2022/05/09 04:34:51;;;;;;;28.35;10.10;;;;;;;;;;5049026;28;20046;-83
2022/05/09 04:37:20;;;;;;;23.25;9.80;;;;;;;;;;5047849;28;20049;-83
2022/05/09 04:39:48;;;;;;;18.33;9.88;;;;;;;;;;5049900;28;20046;-83
2022/05/09 04:42:14;;;;;;;20.92;9.88;;;;;;;;;;5045346;28;20058;-83
2022/05/09 04:44:40;;;;;;;26.38;10.25;;;;;;;;;;5039319;28;20046;-83
2022/05/09 04:47:07;;;;;;;23.25;9.43;;;;;;;;;;5029512;28;20496;-83
2022/05/09 04:49:36;;;;;;;23.92;10.05;;;;;;;;;;5044428;28;20071;-84
2022/05/09 04:52:02;;;;;;;23.20;9.80;;;;;;;;;;5038186;28;20046;-84
2022/05/09 04:54:28;;;;;;;24.33;9.75;;;;;;;;;;5041957;28;20034;-84
2022/05/09 04:56:54;;;;;;;20.95;9.32;;;;;;;;;;5046204;28;20495;-84
2022/05/09 04:59:20;;;;;;;26.02;10.23;;;;;;;;;;5037359;28;20451;-85
2022/05/09 05:01:46;;;;;;;22.25;9.80;;;;;;;;;;5016326;28;20046;-84
2022/05/09 05:04:14;;;;;;;21.30;9.75;;;;;;;;;;5045683;28;20045;-84
2022/05/09 05:06:40;;;;;;;21.67;9.70;;;;;;;;;;5042637;28;20415;-82
2022/05/09 05:09:06;;;;;;;25.80;9.63;;;;;;;;;;5047438;28;20451;-83
2022/05/09 05:11:32;;;;;;;22.70;9.60;;;;;;;;;;5040972;28;20053;-84
2022/05/09 05:13:58;;;;;;;23.33;10.10;;;;;;;;;;5026552;28;20073;-84
2022/05/09 05:16:59;;;;;;;22.45;9.88;;;;;;;;;;5030870;28;20041;-84
2022/05/09 05:19:10;;;;;;;21.55;9.45;;;;;;;;;;5046804;28;20415;-84
2022/05/09 05:21:36;;;;;;;26.08;9.60;;;;;;;;;;5044327;28;20045;-84
2022/05/09 05:24:02;;;;;;;21.83;9.32;;;;;;;;;;5045038;28;20044;-84
2022/05/09 05:26:28;;;;;;;24.23;9.30;;;;;;;;;;5047326;28;20037;-84
2022/05/09 05:28:54;;;;;;;24.55;10.10;;;;;;;;;;5041853;28;20042;-84
2022/05/09 05:31:20;;;;;;;20.30;8.63;;;;;;;;;;5028780;28;20042;-84
2022/05/09 05:33:46;;;;;;;17.50;8.05;;;;;;;;;;5047597;28;20099;-85
2022/05/09 05:36:13;;;;;;;21.00;8.18;;;;;;;;;;5045505;28;20047;-84
2022/05/09 05:38:39;;;;;;;22.30;7.40;;;;;;;;;;5045041;28;20049;-84
2022/05/09 05:41:05;;;;;;;18.17;7.82;;;;;;;;;;5044198;28;20077;-84
2022/05/09 05:43:31;;;;;;;16.70;6.60;;;;;;;;;;5044919;28;20042;-84
2022/05/09 05:45:57;;;;;;;17.35;6.90;;;;;;;;;;5045773;28;20064;-84
2022/05/09 05:48:24;;;;;;;16.08;6.65;;;;;;;;;;5042287;28;20103;-83
2022/05/09 05:50:52;;;;;;;19.33;7.18;;;;;;;;;;5042950;28;20045;-83
2022/05/09 05:53:18;;;;;;;15.45;6.50;;;;;;;;;;5036519;28;20053;-83
2022/05/09 05:55:44;;;;;;;17.23;6.63;;;;;;;;;;5042651;28;20049;-83
2022/05/09 05:58:10;;;;;;;19.20;6.47;;;;;;;;;;5039071;28;20057;-82
2022/05/09 06:00:36;;;;;;;18.85;6.95;;;;;;;;;;5065296;28;20091;-83
2022/05/09 06:03:03;;;;;;;20.98;6.90;;;;;;;;;;5061523;28;20106;-82
2022/05/09 06:05:31;;;;;;;16.55;6.28;;;;;;;;;;5064220;28;20040;-83
2022/05/09 06:07:57;;;;;;;16.98;7.15;;;;;;;;;;5047494;28;20059;-84
2022/05/09 06:10:26;;;;;;;15.70;6.03;;;;;;;;;;5051773;28;20041;-83
2022/05/09 06:12:53;;;;;;;15.93;6.07;;;;;;;;;;5064180;28;20048;-83
2022/05/09 06:15:25;;;;;;;17.35;5.78;;;;;;;;;;5063717;28;20106;-83
2022/05/09 06:17:51;;;;;;;17.73;6.25;;;;;;;;;;5050484;28;20081;-84
2022/05/09 06:20:18;;;;;;;16.30;6.38;;;;;;;;;;5064953;28;20041;-84
2022/05/09 06:22:45;;;;;;;15.90;6.07;;;;;;;;;;5060953;28;20514;-83
2022/05/09 06:25:15;;;;;;;19.77;6.25;;;;;;;;;;5046309;28;20071;-84
2022/05/09 06:27:41;;;;;;;18.52;6.40;;;;;;;;;;5055768;28;20115;-84
2022/05/09 06:30:10;;;;;;;19.25;6.00;;;;;;;;;;5065615;28;20052;-84
2022/05/09 06:32:36;;;;;;;19.35;5.95;;;;;;;;;;5048523;28;20041;-83
2022/05/09 06:35:05;;;;;;;17.30;6.20;;;;;;;;;;5060554;28;20037;-83
2022/05/09 06:37:33;;;;;;;16.27;5.97;;;;;;;;;;5063920;28;20065;-83
2022/05/09 06:39:59;;;;;;;16.83;5.97;;;;;;;;;;5063886;28;20376;-83
2022/05/09 06:42:25;;;;;;;14.82;5.90;;;;;;;;;;5065281;28;20104;-84
2022/05/09 06:44:51;;;;;;;17.88;5.85;;;;;;;;;;5048760;28;20147;-83
2022/05/09 06:47:17;;;;;;;13.23;5.32;;;;;;;;;;5041661;28;20053;-83
2022/05/09 06:49:43;;;;;;;17.83;5.85;;;;;;;;;;5045122;28;20478;-84
2022/05/09 06:52:09;;;;;;;14.82;5.25;;;;;;;;;;5062665;28;20065;-84
2022/05/09 06:54:35;;;;;;;12.40;4.75;;;;;;;;;;5061496;28;20059;-84
2022/05/09 06:57:01;;;;;;;16.33;5.70;;;;;;;;;;5061399;28;20459;-84
2022/05/09 06:59:27;;;;;;;15.18;5.28;;;;;;;;;;5064414;28;20079;-85
2022/05/09 07:01:53;;;;;;;14.15;5.10;;;;;;;;;;5064715;28;20044;-84
2022/05/09 07:04:19;;;;;;;14.70;5.68;;;;;;;;;;5060915;28;20037;-85
2022/05/09 07:06:45;;;;;;;13.93;4.85;;;;;;;;;;5045449;28;20037;-85
2022/05/09 07:09:13;;;;;;;17.15;5.40;;;;;;;;;;5065737;28;20052;-86
2022/05/09 07:11:39;;;;;;;13.85;5.38;;;;;;;;;;5064648;28;20049;-86
2022/05/09 07:14:06;;;;;;;18.23;5.53;;;;;;;;;;5064409;28;20041;-84
2022/05/09 07:16:32;;;;;;;14.45;5.53;;;;;;;;;;5048637;28;20051;-85
2022/05/09 07:18:58;;;;;;;13.60;5.70;;;;;;;;;;5067521;28;20045;-85
2022/05/09 07:21:25;;;;;;;17.63;5.88;;;;;;;;;;5067757;28;20052;-84
2022/05/09 07:23:51;;;;;;;14.27;5.28;;;;;;;;;;5068280;28;20110;-85
2022/05/09 07:26:17;;;;;;;12.68;5.05;;;;;;;;;;5067184;28;20041;-84
2022/05/09 07:28:43;;;;;;;14.15;5.40;;;;;;;;;;5065447;28;20207;-85
2022/05/09 07:31:10;;;;;;;13.55;5.22;;;;;;;;;;5048303;28;20068;-84
2022/05/09 07:33:36;;;;;;;15.35;5.43;;;;;;;;;;5063139;28;20047;-84
2022/05/09 07:36:03;;;;;;;13.88;5.10;;;;;;;;;;5063806;28;20049;-84
2022/05/09 07:38:30;;;;;;;14.13;5.10;;;;;;;;;;5049432;28;20044;-85
2022/05/09 07:40:59;;;;;;;12.60;4.97;;;;;;;;;;5065684;28;20100;-85
2022/05/09 07:43:26;;;;;;;13.32;4.88;;;;;;;;;;5031155;28;20049;-83
2022/05/09 07:45:54;;;;;;;16.35;4.88;;;;;;;;;;5046559;28;20578;-83
2022/05/09 07:48:21;;;;;;;13.05;4.80;;;;;;;;;;5047119;28;20492;-86
2022/05/09 07:50:47;;;;;;;13.10;4.50;;;;;;;;;;5058032;28;20051;-84
2022/05/09 07:53:19;;;;;;;14.27;5.00;;;;;;;;;;5065251;28;20063;-84
2022/05/09 07:55:45;;;;;;;17.48;4.90;;;;;;;;;;5046556;28;20049;-84
2022/05/09 07:58:11;;;;;;;14.23;4.65;;;;;;;;;;5047730;28;20076;-84
2022/05/09 08:00:38;;;;;;;15.15;4.47;;;;;;;;;;5063753;28;20055;-84
2022/05/09 08:03:04;;;;;;;11.20;4.50;;;;;;;;;;5047017;28;20114;-85
2022/05/09 08:05:31;;;;;;;11.98;4.18;;;;;;;;;;5029891;28;20041;-84
2022/05/09 08:07:57;;;;;;;13.73;4.15;;;;;;;;;;5047069;28;20117;-85
2022/05/09 08:10:23;;;;;;;13.60;4.53;;;;;;;;;;5065602;28;20041;-85
2022/05/09 08:12:49;;;;;;;11.27;4.70;;;;;;;;;;5047971;28;20398;-85
2022/05/09 08:15:17;;;;;;;11.10;4.20;;;;;;;;;;5048817;28;20090;-83
2022/05/09 08:17:46;;;;;;;14.43;4.03;;;;;;;;;;5065547;28;20048;-83
2022/05/09 08:20:12;;;;;;;14.35;4.38;;;;;;;;;;5063180;28;20100;-85
2022/05/09 08:22:38;;;;;;;13.38;4.70;;;;;;;;;;5047027;28;20052;-85
2022/05/09 08:25:05;;;;;;;12.07;4.53;;;;;;;;;;5046437;28;20049;-84
2022/05/09 08:27:32;;;;;;;15.02;4.55;;;;;;;;;;5060811;28;20037;-84
2022/05/09 08:29:58;;;;;;;14.20;4.57;;;;;;;;;;5064410;28;20111;-84
2022/05/09 08:32:25;;;;;;;15.05;4.40;;;;;;;;;;5063682;28;20045;-83
2022/05/09 08:34:52;;;;;;;13.43;4.55;;;;;;;;;;5063334;28;20076;-84
2022/05/09 08:37:18;;;;;;;11.00;4.00;;;;;;;;;;5059201;28;20040;-83
2022/05/09 08:39:45;;;;;;;11.52;4.25;;;;;;;;;;5044581;28;20045;-82
2022/05/09 08:42:15;;;;;;;10.57;4.15;;;;;;;;;;5061930;28;20123;-82
2022/05/09 08:45:00;;;;;;;11.65;4.28;;;;;;;;;;5062997;28;20503;-82
2022/05/09 08:47:30;;;;;;;14.93;4.30;;;;;;;;;;5063263;28;20120;-84
2022/05/09 08:49:55;;;;;;;10.68;3.85;;;;;;;;;;5054624;28;20050;-82
2022/05/09 08:52:26;;;;;;;14.60;4.70;;;;;;;;;;5044354;28;20080;-82
2022/05/09 08:54:54;;;;;;;11.20;3.83;;;;;;;;;;5052490;28;20051;-83
2022/05/09 08:57:32;;;;;;;11.15;3.65;;;;;;;;;;5044156;28;20064;-81
2022/05/09 09:00:01;;;;;;;14.32;3.92;;;;;;;;;;5038880;28;20049;-82
2022/05/09 09:02:46;;;;;;;14.63;4.28;;;;;;;;;;5063210;28;20051;-81
2022/05/09 09:05:13;;;;;;;11.98;4.00;;;;;;;;;;5061251;28;20041;-82
2022/05/09 09:07:46;;;;;;;14.10;5.28;;;;;;;;;;5061806;28;20078;-82
2022/05/09 09:10:12;;;;;;;12.00;3.75;;;;;;;;;;5060103;28;20049;-82
2022/05/09 09:12:47;;;;;;;15.60;4.28;;;;;;;;;;5058657;28;20521;-83
2022/05/09 09:15:26;;;;;;;12.80;3.63;;;;;;;;;;5058501;28;20116;-82
2022/05/09 09:17:52;;;;;;;14.60;3.53;;;;;;;;;;5063683;28;20045;-82
2022/05/09 09:20:21;;;;;;;11.93;3.50;;;;;;;;;;5065064;28;20051;-81
2022/05/09 09:22:50;;;;;;;13.88;3.50;;;;;;;;;;5063339;28;20095;-80
2022/05/09 09:25:35;;;;;;;13.52;4.10;;;;;;;;;;5060533;28;20045;-81
2022/05/09 09:28:01;;;;;;;10.68;4.07;;;;;;;;;;5043976;28;20045;-81
2022/05/09 09:30:29;;;;;;;14.10;3.35;;;;;;;;;;5045250;28;20043;-81
2022/05/09 09:33:03;;;;;;;11.30;3.13;;;;;;;;;;5053678;28;20462;-82
2022/05/09 09:35:31;;;;;;;9.55;3.00;;;;;;;;;;5043035;28;20098;-81
2022/05/09 09:38:02;;;;;;;14.88;3.47;;;;;;;;;;5043910;28;20059;-82
2022/05/09 09:40:28;;;;;;;;;;;;;;;;;;5062178;28;20403;-82
2022/05/09 09:42:55;;;;;;;17.40;3.63;;;;;;;;;;5064184;28;19921;-82
2022/05/09 09:45:40;;;;;;;11.07;2.67;;;;;;;;;;5062424;28;20513;-82
2022/05/09 09:48:09;;;;;;;10.02;2.85;;;;;;;;;;5058622;28;20044;-83
2022/05/09 09:50:36;;;;;;;14.25;3.10;;;;;;;;;;5035921;28;20048;-82
2022/05/09 09:53:03;;;;;;;13.65;3.80;;;;;;;;;;5045727;28;21326;-83
2022/05/09 09:55:33;;;;;;;10.55;2.80;;;;;;;;;;5060131;28;20099;-81
2022/05/09 09:58:18;;;;;;;11.32;2.92;;;;;;;;;;5060367;28;20068;-81
2022/05/09 10:00:44;;;;;;;9.93;3.38;;;;;;;;;;5029020;28;20111;-82
2022/05/09 10:03:16;;;;;;;8.55;2.97;;;;;;;;;;5060869;28;20044;-81
2022/05/09 10:05:46;;;;;;;9.43;3.00;;;;;;;;;;5061496;28;20090;-81
2022/05/09 10:08:29;;;;;;;9.32;2.90;;;;;;;;;;5059785;28;20124;-82
2022/05/09 10:10:56;;;;;;;10.23;3.42;;;;;;;;;;5054474;28;20045;-81
2022/05/09 10:13:23;;;;;;;11.48;2.92;;;;;;;;;;5058916;28;20120;-81
2022/05/09 10:16:02;;;;;;;12.30;3.30;;;;;;;;;;5060342;28;20081;-80
2022/05/09 10:18:32;;;;;;;13.45;3.13;;;;;;;;;;5060592;28;20101;-80
2022/05/09 10:21:00;;;;;;;9.75;2.80;;;;;;;;;;5058825;28;20064;-82
2022/05/09 10:26:14;;;;;;;9.18;2.50;;;;;;;;;;5061470;28;20045;-82
2022/05/09 10:28:45;;;;;;;10.88;2.80;;;;;;;;;;5062846;28;20056;-82
2022/05/09 10:31:14;;;;;;;11.45;2.85;;;;;;;;;;5062641;28;20048;-83
2022/05/09 10:33:45;;;;;;;9.10;2.72;;;;;;;;;;5044113;28;20044;-82
2022/05/09 10:36:17;;;;;;;10.70;2.70;;;;;;;;;;5046024;28;20044;-81
2022/05/09 10:38:49;;;;;;;11.25;2.88;;;;;;;;;;5041205;28;20506;-82
2022/05/09 10:41:21;;;;;;;12.57;2.88;;;;;;;;;;5061228;28;20068;-82
2022/05/09 10:43:53;;;;;;;10.93;2.42;;;;;;;;;;5058404;28;20049;-82
2022/05/09 10:46:21;;;;;;;11.48;2.92;;;;;;;;;;5043382;28;20045;-82
2022/05/09 10:48:59;;;;;;;9.35;2.60;;;;;;;;;;5064237;28;20045;-81
2022/05/09 10:51:43;;;;;;;12.75;2.83;;;;;;;;;;5062580;28;20099;-82
2022/05/09 10:54:13;;;;;;;10.40;2.30;;;;;;;;;;5028275;28;20505;-82
2022/05/09 10:56:42;;;;;;;13.50;3.03;;;;;;;;;;5060135;28;20041;-83
2022/05/09 10:59:11;;;;;;;12.93;3.17;;;;;;;;;;5062730;28;20057;-83
2022/05/09 11:01:52;;;;;;;11.32;2.90;;;;;;;;;;5043535;28;20105;-83
2022/05/09 11:04:18;;;;;;;9.80;2.30;;;;;;;;;;5057356;28;20407;-82
2022/05/09 11:07:00;;;;;;;11.68;2.67;;;;;;;;;;5061078;28;20410;-83
2022/05/09 11:09:36;;;;;;;18.13;3.60;;;;;;;;;;5042378;28;20057;-82
2022/05/09 11:12:02;;;;;;;16.67;3.67;;;;;;;;;;5058320;28;20090;-81
2022/05/09 11:14:28;;;;;;;11.32;2.65;;;;;;;;;;5061312;28;20045;-82
2022/05/09 11:17:16;;;;;;;10.55;2.47;;;;;;;;;;5043941;28;20407;-82
2022/05/09 11:19:47;;;;;;;12.45;2.95;;;;;;;;;;5058795;28;20064;-82
2022/05/09 11:22:22;;;;;;;8.93;2.53;;;;;;;;;;5027438;28;20080;-81
2022/05/09 11:24:52;;;;;;;10.63;2.90;;;;;;;;;;5061055;28;20060;-81
2022/05/09 11:27:36;;;;;;;10.23;2.20;;;;;;;;;;5044433;28;20040;-83
2022/05/09 11:30:22;;;;;;;11.63;2.65;;;;;;;;;;5056889;28;20123;-81
2022/05/09 11:32:54;;;;;;;10.18;2.38;;;;;;;;;;5058572;28;20051;-80
2022/05/09 11:35:21;;;;;;;15.80;3.00;;;;;;;;;;5061348;28;20048;-82
2022/05/09 11:38:06;;;;;;;12.43;2.70;;;;;;;;;;5062571;28;20049;-83
2022/05/09 11:40:41;;;;;;;12.00;2.60;;;;;;;;;;5060411;28;20559;-82
2022/05/09 11:43:30;;;;;;;11.30;2.38;;;;;;;;;;5062659;28;20490;-82
2022/05/09 11:46:16;;;;;;;8.23;2.33;;;;;;;;;;5044463;28;20056;-81
2022/05/09 11:48:59;;;;;;;6.93;2.42;;;;;;;;;;5057636;28;20045;-83
2022/05/09 11:51:46;;;;;;;11.82;2.63;;;;;;;;;;5064247;28;20049;-82
2022/05/09 11:54:15;;;;;;;7.93;2.33;;;;;;;;;;5059381;28;20041;-83
2022/05/09 11:56:43;;;;;;;25.42;3.00;;;;;;;;;;5057190;28;20051;-82
2022/05/09 11:59:16;;;;;;;10.40;3.00;;;;;;;;;;5055765;28;20049;-81
2022/05/09 12:01:57;;;;;;;10.75;2.88;;;;;;;;;;5052751;28;20083;-82
2022/05/09 12:04:35;;;;;;;7.75;2.70;;;;;;;;;;5057697;28;20067;-81
2022/05/09 12:07:22;;;;;;;27.13;2.88;;;;;;;;;;5059216;28;20048;-82
2022/05/09 12:10:03;;;;;;;12.10;3.08;;;;;;;;;;5062205;28;20119;-81
2022/05/09 12:12:38;;;;;;;11.25;2.80;;;;;;;;;;5054667;28;20041;-82
2022/05/09 12:15:12;;;;;;;10.15;3.38;;;;;;;;;;5029337;28;20057;-81
2022/05/09 12:17:39;;;;;;;10.00;3.05;;;;;;;;;;5043407;28;20087;-81
2022/05/09 12:20:09;;;;;;;9.77;2.80;;;;;;;;;;5062910;28;20041;-81
2022/05/09 12:22:47;;;;;;;8.07;2.60;;;;;;;;;;5062281;28;20045;-81
2022/05/09 12:25:32;;;;;;;12.07;3.40;;;;;;;;;;5046301;28;20072;-81
2022/05/09 12:28:04;;;;;;;10.60;3.30;;;;;;;;;;5060321;28;20040;-80
2022/05/09 12:30:36;;;;;;;10.68;3.35;;;;;;;;;;5027375;28;20377;-81
2022/05/09 12:33:11;;;;;;;11.35;3.28;;;;;;;;;;5062952;28;20059;-81
2022/05/09 12:35:37;;;;;;;12.05;3.17;;;;;;;;;;5062744;28;20045;-81
2022/05/09 12:38:03;;;;;;;8.15;3.20;;;;;;;;;;5061209;28;20044;-81
2022/05/09 12:40:33;;;;;;;10.55;3.00;;;;;;;;;;5063139;28;20490;-81
2022/05/09 12:43:01;;;;;;;11.67;3.23;;;;;;;;;;5061747;28;20052;-82
2022/05/09 12:45:28;;;;;;;9.70;3.00;;;;;;;;;;5060550;28;20037;-81
2022/05/09 12:47:57;;;;;;;10.23;3.03;;;;;;;;;;5044625;28;20041;-81
2022/05/09 12:50:34;;;;;;;9.20;2.85;;;;;;;;;;5062746;28;20076;-81
2022/05/09 12:53:05;;;;;;;8.95;3.00;;;;;;;;;;5062407;28;20049;-81
2022/05/09 12:55:52;;;;;;;10.77;3.08;;;;;;;;;;5063340;28;20045;-80
2022/05/09 12:58:24;;;;;;;10.40;3.05;;;;;;;;;;5064992;28;20080;-81
2022/05/09 13:00:55;;;;;;;11.50;3.05;;;;;;;;;;5064360;28;20064;-79
2022/05/09 13:03:21;;;;;;;11.90;3.55;;;;;;;;;;5064138;28;20049;-83
2022/05/09 13:05:47;;;;;;;11.23;3.13;;;;;;;;;;5047418;28;20051;-82
2022/05/09 13:08:14;;;;;;;11.27;3.20;;;;;;;;;;5065746;28;20040;-82
2022/05/09 13:10:54;;;;;;;10.68;2.67;;;;;;;;;;5046386;28;20056;-82
2022/05/09 13:13:31;;;;;;;9.03;2.47;;;;;;;;;;5048500;28;20387;-79
2022/05/09 13:15:57;;;;;;;9.38;2.60;;;;;;;;;;5065832;28;20128;-81
2022/05/09 13:18:25;;;;;;;10.00;2.50;;;;;;;;;;5047395;28;20045;-82
2022/05/09 13:20:52;;;;;;;7.13;2.20;;;;;;;;;;5050896;28;20064;-82
2022/05/09 13:23:24;;;;;;;7.55;2.20;;;;;;;;;;5050118;28;20045;-81
2022/05/09 13:25:51;;;;;;;8.50;2.47;;;;;;;;;;5049992;28;20045;-82
2022/05/09 13:28:22;;;;;;;11.25;2.70;;;;;;;;;;5047383;28;20041;-81
2022/05/09 13:30:49;;;;;;;9.57;2.50;;;;;;;;;;5066282;28;20595;-80
2022/05/09 13:33:23;;;;;;;9.35;2.40;;;;;;;;;;5047571;28;20483;-81
2022/05/09 13:35:50;;;;;;;9.48;2.22;;;;;;;;;;5067293;28;20073;-82
2022/05/09 13:38:18;;;;;;;9.90;2.30;;;;;;;;;;5049164;28;20045;-81
2022/05/09 13:40:44;;;;;;;7.88;2.15;;;;;;;;;;5047244;28;20056;-81
2022/05/09 13:43:13;;;;;;;6.63;2.63;;;;;;;;;;5065473;28;20041;-81
2022/05/09 13:45:39;;;;;;;9.05;2.67;;;;;;;;;;5046882;28;20077;-81
2022/05/09 13:48:13;;;;;;;9.00;2.47;;;;;;;;;;5064176;28;20036;-82
2022/05/09 13:50:43;;;;;;;9.48;2.47;;;;;;;;;;5063507;28;20558;-81
2022/05/09 13:53:18;;;;;;;10.10;2.60;;;;;;;;;;5046842;28;20067;-81
2022/05/09 13:55:45;;;;;;;9.40;2.20;;;;;;;;;;5046928;28;20041;-80
2022/05/09 13:58:16;;;;;;;9.38;2.65;;;;;;;;;;5063445;28;20053;-82
2022/05/09 14:00:46;;;;;;;7.97;2.10;;;;;;;;;;5066074;28;20041;-81
2022/05/09 14:03:16;;;;;;;9.90;2.70;;;;;;;;;;5045321;28;20051;-81
2022/05/09 14:05:42;;;;;;;10.13;2.80;;;;;;;;;;5063867;28;20574;-82
2022/05/09 14:08:11;;;;;;;8.00;2.35;;;;;;;;;;5064072;28;20059;-80
2022/05/09 14:10:38;;;;;;;11.70;2.50;;;;;;;;;;5048180;28;20128;-81
2022/05/09 14:13:23;;;;;;;8.57;2.60;;;;;;;;;;5063253;28;20047;-81
2022/05/09 14:15:55;;;;;;;11.60;2.25;;;;;;;;;;5063132;28;20041;-82
2022/05/09 14:18:21;;;;;;;9.60;2.10;;;;;;;;;;5063138;28;20067;-82
2022/05/09 14:20:48;;;;;;;7.45;2.35;;;;;;;;;;5046094;28;20056;-81
2022/05/09 14:23:17;;;;;;;6.30;2.28;;;;;;;;;;5060770;28;20037;-82
2022/05/09 14:31:25;;;;;;;5.63;2.00;;;;;;;;;;5058572;28;20081;-79
2022/05/09 14:33:51;;;;;;;8.32;2.30;;;;;;;;;;5060383;28;20090;-81
2022/05/09 14:36:32;;;;;;;6.25;2.08;;;;;;;;;;5062854;28;20518;-79
2022/05/09 14:38:59;;;;;;;7.25;2.10;;;;;;;;;;5047376;28;20057;-81
2022/05/09 14:41:37;;;;;;;9.82;1.88;;;;;;;;;;5059730;28;20044;-81
2022/05/09 14:44:22;;;;;;;7.65;2.05;;;;;;;;;;5037763;28;20108;-80
2022/05/09 14:46:55;;;;;;;9.50;2.15;;;;;;;;;;5058750;28;20055;-81
2022/05/09 14:49:21;;;;;;;9.10;1.88;;;;;;;;;;5057532;28;20052;-82
2022/05/09 14:51:57;;;;;;;7.18;2.05;;;;;;;;;;5057548;28;20107;-81
2022/05/09 14:54:24;;;;;;;7.53;2.08;;;;;;;;;;5062820;28;20029;-82
2022/05/09 14:59:35;;;;;;;7.57;2.28;;;;;;;;;;5077681;28;20052;-83
2022/05/09 15:02:06;;;;;;;7.65;1.85;;;;;;;;;;5053920;28;20045;-83
2022/05/09 15:04:32;;;;;;;10.82;2.45;;;;;;;;;;5058790;28;20041;-83